createdAt,value
2019-04-26T00:02:24.097Z,18.14
2019-04-26T00:04:59.725Z,17.81
2019-04-26T00:07:34.633Z,17.56
2019-04-26T00:10:18.127Z,17.30
2019-04-26T00:13:02.050Z,16.97
2019-04-26T00:15:57.563Z,16.83
2019-04-26T00:18:32.507Z,16.60
2019-04-26T00:21:07.720Z,16.39
2019-04-26T00:23:43.978Z,16.28
2019-04-26T00:26:20.114Z,16.08
2019-04-26T00:28:54.143Z,16.03
2019-04-26T00:31:27.863Z,15.84
2019-04-26T00:34:01.882Z,15.80
2019-04-26T00:36:36.667Z,15.64
2019-04-26T00:39:10.518Z,15.58
2019-04-26T00:41:46.559Z,15.61
2019-04-26T00:44:20.900Z,15.60
2019-04-26T00:46:59.157Z,15.87
2019-04-26T00:49:43.408Z,15.63
2019-04-26T00:52:12.998Z,15.61
2019-04-26T00:54:48.707Z,15.48
2019-04-26T00:57:25.195Z,15.32
2019-04-26T01:00:00.954Z,15.26
2019-04-26T01:02:49.276Z,15.14
2019-04-26T01:05:25.159Z,14.96
2019-04-26T01:07:59.361Z,14.98
2019-04-26T01:10:33.934Z,14.89
2019-04-26T01:13:10.970Z,14.93
2019-04-26T01:15:44.665Z,14.99
2019-04-26T01:18:18.469Z,15.04
2019-04-26T01:20:56.987Z,14.87
2019-04-26T01:23:34.406Z,14.91
2019-04-26T01:26:17.953Z,14.88
2019-04-26T01:29:07.684Z,14.88
2019-04-26T01:31:53.912Z,14.83
2019-04-26T01:34:28.259Z,14.72
2019-04-26T01:37:04.150Z,14.66
2019-04-26T01:39:40.509Z,14.62
2019-04-26T01:42:35.304Z,14.79
2019-04-26T01:45:34.319Z,14.86
2019-04-26T01:48:34.289Z,14.55
2019-04-26T01:51:09.177Z,14.55
2019-04-26T01:53:45.032Z,14.50
2019-04-26T01:56:23.467Z,14.52
2019-04-26T01:58:57.401Z,14.34
2019-04-26T02:01:56.480Z,14.30
2019-04-26T02:04:33.375Z,14.26
2019-04-26T02:07:07.579Z,14.24
2019-04-26T02:09:44.251Z,14.23
2019-04-26T02:12:18.058Z,14.19
2019-04-26T02:14:54.218Z,14.29
2019-04-26T02:17:27.971Z,14.10
2019-04-26T02:20:02.214Z,14.01
2019-04-26T02:22:51.199Z,14.06
2019-04-26T02:25:25.975Z,13.88
2019-04-26T02:27:59.838Z,13.86
2019-04-26T02:30:35.367Z,13.74
2019-04-26T02:33:09.261Z,13.86
2019-04-26T02:35:44.398Z,13.71
2019-04-26T02:38:20.075Z,13.59
2019-04-26T02:40:54.846Z,13.61
2019-04-26T02:43:31.211Z,13.57
2019-04-26T02:46:21.363Z,13.45
2019-04-26T02:49:21.897Z,13.43
2019-04-26T02:52:15.438Z,13.38
2019-04-26T02:55:03.498Z,13.26
2019-04-26T02:57:54.325Z,13.30
2019-04-26T03:00:30.207Z,13.22
2019-04-26T03:03:10.613Z,13.31
2019-04-26T03:05:47.712Z,13.33
2019-04-26T03:08:25.787Z,13.33
2019-04-26T03:11:17.850Z,13.45
2019-04-26T03:14:20.259Z,13.41
2019-04-26T03:17:15.909Z,13.28
2019-04-26T03:20:02.987Z,13.17
2019-04-26T03:23:57.023Z,13.17
2019-04-26T03:27:15.131Z,13.00
2019-04-26T03:30:21.067Z,12.93
2019-04-26T03:33:54.292Z,12.98
2019-04-26T03:37:27.808Z,12.86
2019-04-26T03:40:47.868Z,12.85
2019-04-26T03:43:55.772Z,12.71
2019-04-26T03:46:46.752Z,12.74
2019-04-26T03:49:49.011Z,12.78
2019-04-26T03:52:55.143Z,12.58
2019-04-26T03:56:38.027Z,12.67
2019-04-26T04:00:18.133Z,12.56
2019-04-26T04:03:14.058Z,12.49
2019-04-26T04:05:52.179Z,12.41
2019-04-26T04:08:39.843Z,12.57
2019-04-26T04:11:19.358Z,12.75
2019-04-26T04:14:06.748Z,12.65
2019-04-26T04:17:43.142Z,12.48
2019-04-26T04:21:11.263Z,12.73
2019-04-26T04:24:08.412Z,12.80
2019-04-26T04:27:41.841Z,12.91
2019-04-26T04:31:01.705Z,13.07
2019-04-26T04:34:07.641Z,13.04
2019-04-26T04:36:54.751Z,13.20
2019-04-26T04:40:37.904Z,13.31
2019-04-26T04:43:34.914Z,13.81
2019-04-26T04:46:43.880Z,14.88
2019-04-26T04:49:50.461Z,15.66
2019-04-26T04:53:04.886Z,15.66
2019-04-26T04:56:10.228Z,15.90
2019-04-26T04:58:53.740Z,15.16
2019-04-26T05:02:50.668Z,14.96
2019-04-26T05:06:07.311Z,15.41
2019-04-26T05:08:56.695Z,15.28
2019-04-26T05:12:19.946Z,15.09
2019-04-26T05:16:03.224Z,15.01
2019-04-26T05:19:28.689Z,17.29
2019-04-26T05:23:06.582Z,16.63
2019-04-26T05:27:01.030Z,15.78
2019-04-26T05:30:31.880Z,15.51
2019-04-26T05:33:36.340Z,16.13
2019-04-26T05:36:52.758Z,17.76
2019-04-26T05:39:51.398Z,19.08
2019-04-26T05:43:34.283Z,19.49
2019-04-26T05:47:11.097Z,20.17
2019-04-26T05:50:58.144Z,20.63
2019-04-26T05:54:30.776Z,20.71
2019-04-26T05:57:45.926Z,21.45
2019-04-26T06:00:47.868Z,21.73
2019-04-26T06:04:25.115Z,20.42
2019-04-26T06:07:30.547Z,21.13
2019-04-26T06:10:33.928Z,21.38
2019-04-26T06:14:19.102Z,21.76
2019-04-26T06:17:59.726Z,21.37
2019-04-26T06:21:07.256Z,22.22
2019-04-26T06:24:31.223Z,21.32
2019-04-26T06:27:54.563Z,20.50
2019-04-26T06:30:59.389Z,21.13
2019-04-26T06:33:49.956Z,22.73
2019-04-26T06:36:37.699Z,22.34
2019-04-26T06:39:32.873Z,21.84
2019-04-26T06:42:54.879Z,21.77
2019-04-26T06:46:53.436Z,21.30
2019-04-26T06:50:15.097Z,22.26
2019-04-26T06:53:02.047Z,22.83
2019-04-26T06:55:50.903Z,22.75
2019-04-26T06:59:21.825Z,24.05
2019-04-26T07:02:09.823Z,23.21
2019-04-26T07:05:24.180Z,24.60
2019-04-26T07:08:57.807Z,24.36
2019-04-26T07:12:44.419Z,22.13
2019-04-26T07:16:01.357Z,21.28
2019-04-26T07:19:54.943Z,21.99
2019-04-26T07:23:33.020Z,21.65
2019-04-26T07:26:58.608Z,19.77
2019-04-26T07:30:26.013Z,19.28
2019-04-26T07:33:59.409Z,19.08
2019-04-26T07:37:47.312Z,20.23
2019-04-26T07:41:42.717Z,22.10
2019-04-26T07:45:05.484Z,22.57
2019-04-26T07:48:55.549Z,20.25
2019-04-26T07:52:21.237Z,21.42
2019-04-26T07:55:54.978Z,23.10
2019-04-26T07:59:30.834Z,23.68
2019-04-26T08:02:29.633Z,24.08
2019-04-26T08:05:19.704Z,23.46
2019-04-26T08:08:00.768Z,22.74
2019-04-26T08:10:40.536Z,22.11
2019-04-26T08:13:19.541Z,21.29
2019-04-26T08:16:20.474Z,21.72
2019-04-26T08:19:02.492Z,22.43
2019-04-26T08:21:47.931Z,21.60
2019-04-26T08:24:27.915Z,21.47
2019-04-26T08:27:18.888Z,21.86
2019-04-26T08:29:52.668Z,21.26
2019-04-26T08:32:33.382Z,20.46
2019-04-26T08:35:21.745Z,20.65
2019-04-26T08:37:59.605Z,19.93
2019-04-26T08:40:36.410Z,19.66
2019-04-26T08:43:45.942Z,19.34
2019-04-26T08:46:41.918Z,19.36
2019-04-26T08:49:39.172Z,19.41
2019-04-26T08:52:14.974Z,20.22
2019-04-26T08:54:55.368Z,20.55
2019-04-26T08:57:35.018Z,20.68
2019-04-26T09:00:27.361Z,20.76
2019-04-26T09:03:12.060Z,21.15
2019-04-26T09:06:06.391Z,21.02
2019-04-26T09:08:45.111Z,20.41
2019-04-26T09:11:26.458Z,20.23
2019-04-26T09:14:02.352Z,20.72
2019-04-26T09:16:36.437Z,20.71
2019-04-26T09:19:10.384Z,20.77
2019-04-26T09:21:59.095Z,20.41
2019-04-26T09:24:41.427Z,20.14
2019-04-26T09:27:35.208Z,20.83
2019-04-26T09:30:34.780Z,20.76
2019-04-26T09:33:17.466Z,20.09
2019-04-26T09:35:52.543Z,20.13
2019-04-26T09:38:26.291Z,19.93
2019-04-26T09:41:00.617Z,19.57
2019-04-26T09:43:47.824Z,20.48
2019-04-26T09:46:40.752Z,20.88
2019-04-26T09:49:29.498Z,20.28
2019-04-26T09:52:06.332Z,20.11
2019-04-26T09:54:41.191Z,19.84
2019-04-26T09:57:15.212Z,19.92
2019-04-26T10:03:27.947Z,19.66
2019-04-26T10:06:04.375Z,19.43
2019-04-26T10:08:38.187Z,19.16
2019-04-26T10:11:17.495Z,18.96
2019-04-26T10:13:58.198Z,18.62
2019-04-26T10:16:37.692Z,18.54
2019-04-26T10:19:17.366Z,18.35
2019-04-26T10:21:53.545Z,18.32
2019-04-26T10:24:27.344Z,18.31
2019-04-26T10:27:03.434Z,18.47
2019-04-26T10:29:36.887Z,18.57
2019-04-26T10:32:11.003Z,18.24
2019-04-26T10:34:47.250Z,18.53
2019-04-26T10:37:21.080Z,18.50
2019-04-26T10:40:13.090Z,18.08
2019-04-26T10:42:47.530Z,17.85
2019-04-26T10:45:23.953Z,17.60
2019-04-26T10:48:01.197Z,17.23
2019-04-26T10:50:35.209Z,17.41
2019-04-26T10:53:20.476Z,17.25
2019-04-26T10:56:11.693Z,17.38
2019-04-26T10:59:09.814Z,17.45
2019-04-26T11:01:45.410Z,17.58
2019-04-26T11:04:19.664Z,17.38
2019-04-26T11:06:53.794Z,17.38
2019-04-26T11:09:27.803Z,17.15
2019-04-26T11:12:01.753Z,17.09
2019-04-26T11:14:35.460Z,16.88
2019-04-26T11:17:11.523Z,16.88
2019-04-26T11:19:46.866Z,16.81
2019-04-26T11:22:28.929Z,17.20
2019-04-26T11:24:56.204Z,17.31
2019-04-26T11:27:31.727Z,17.58
2019-04-26T11:30:11.582Z,17.31
2019-04-26T11:32:45.724Z,17.20
2019-04-26T11:35:21.074Z,17.02
2019-04-26T11:37:56.638Z,16.68
2019-04-26T11:40:31.207Z,16.94
2019-04-26T11:43:05.381Z,16.83
2019-04-26T11:45:40.109Z,16.83
2019-04-26T11:48:15.328Z,16.87
2019-04-26T11:50:54.124Z,17.12
2019-04-26T11:53:27.940Z,17.02
2019-04-26T11:56:04.519Z,16.97
2019-04-26T11:58:37.721Z,17.10
2019-04-26T12:01:13.075Z,16.77
2019-04-26T12:04:07.121Z,16.96
2019-04-26T12:07:04.812Z,16.91
2019-04-26T12:09:42.213Z,16.83
2019-04-26T12:12:15.891Z,16.84
2019-04-26T12:14:49.849Z,16.88
2019-04-26T12:17:27.020Z,16.84
2019-04-26T12:20:01.981Z,16.87
2019-04-26T12:22:39.396Z,16.86
2019-04-26T12:25:13.329Z,16.87
2019-04-26T12:27:47.451Z,17.06
2019-04-26T12:30:26.438Z,16.90
2019-04-26T12:32:57.925Z,16.84
2019-04-26T12:35:33.871Z,16.69
2019-04-26T12:38:07.682Z,16.43
2019-04-26T12:40:42.299Z,16.76
2019-04-26T12:43:20.189Z,16.86
2019-04-26T12:46:32.200Z,16.85
2019-04-26T12:49:06.412Z,16.82
2019-04-26T12:51:42.705Z,16.88
2019-04-26T12:54:15.649Z,16.53
2019-04-26T12:56:49.462Z,16.61
2019-04-26T12:59:26.541Z,16.61
2019-04-26T13:02:05.825Z,16.57
2019-04-26T13:04:40.537Z,16.58
2019-04-26T13:07:23.878Z,16.52
2019-04-26T13:10:15.763Z,16.67
2019-04-26T13:13:06.356Z,16.69
2019-04-26T13:16:15.670Z,16.70
2019-04-26T13:18:51.657Z,16.99
2019-04-26T13:21:25.539Z,17.10
2019-04-26T13:24:04.319Z,17.12
2019-04-26T13:26:36.441Z,17.10
2019-04-26T13:29:10.533Z,16.80
2019-04-26T13:31:44.577Z,16.55
2019-04-26T13:34:19.371Z,16.46
2019-04-26T13:36:53.941Z,16.40
2019-04-26T13:39:28.038Z,16.19
2019-04-26T13:42:06.685Z,16.23
2019-04-26T13:45:00.632Z,16.29
2019-04-26T13:48:03.618Z,16.03
2019-04-26T13:50:44.779Z,15.67
2019-04-26T13:53:22.227Z,15.32
2019-04-26T13:55:58.170Z,15.36
2019-04-26T13:58:30.121Z,15.42
2019-04-26T14:01:05.614Z,15.22
2019-04-26T14:03:41.096Z,15.24
2019-04-26T14:06:18.267Z,15.01
2019-04-26T14:08:58.267Z,15.00
2019-04-26T14:11:34.180Z,15.04
2019-04-26T14:14:11.062Z,15.04
2019-04-26T14:16:45.799Z,14.93
2019-04-26T14:19:24.119Z,14.79
2019-04-26T14:21:58.622Z,14.51
2019-04-26T14:24:41.027Z,14.20
2019-04-26T14:27:24.042Z,14.18
2019-04-26T14:29:57.708Z,13.98
2019-04-26T14:32:31.547Z,14.00
2019-04-26T14:35:05.898Z,13.72
2019-04-26T14:37:40.142Z,13.66
2019-04-26T14:40:17.284Z,13.44
2019-04-26T14:42:50.484Z,13.52
2019-04-26T14:45:24.516Z,13.52
2019-04-26T14:48:00.275Z,13.35
2019-04-26T14:50:37.016Z,13.20
2019-04-26T14:53:11.048Z,13.38
2019-04-26T14:55:51.207Z,13.33
2019-04-26T14:58:23.897Z,13.19
2019-04-26T15:01:03.203Z,13.18
2019-04-26T15:03:51.488Z,13.22
2019-04-26T15:06:33.030Z,12.99
2019-04-26T15:09:17.998Z,12.92
2019-04-26T15:11:53.328Z,12.95
2019-04-26T15:14:20.634Z,13.19
2019-04-26T15:16:54.410Z,13.03
2019-04-26T15:19:28.640Z,13.03
2019-04-26T15:22:04.062Z,12.79
2019-04-26T15:24:40.023Z,12.78
2019-04-26T15:27:13.683Z,12.74
2019-04-26T15:29:47.510Z,12.64
2019-04-26T15:32:21.790Z,12.59
2019-04-26T15:34:58.581Z,12.68
2019-04-26T15:37:32.241Z,12.63
2019-04-26T15:40:27.414Z,12.50
2019-04-26T15:43:16.052Z,12.45
2019-04-26T15:46:14.795Z,12.55
2019-04-26T15:49:05.166Z,12.37
2019-04-26T15:51:42.648Z,12.45
2019-04-26T15:54:17.945Z,12.56
2019-04-26T15:56:55.305Z,12.53
2019-04-26T15:59:29.573Z,12.58
2019-04-26T16:02:03.622Z,12.57
2019-04-26T16:04:38.456Z,12.61
2019-04-26T16:07:16.661Z,12.45
2019-04-26T16:09:57.596Z,12.41
2019-04-26T16:12:32.072Z,12.44
2019-04-26T16:15:11.415Z,12.27
2019-04-26T16:17:43.267Z,12.49
2019-04-26T16:20:17.230Z,12.37
2019-04-26T16:22:53.380Z,12.09
2019-04-26T16:25:27.142Z,12.17
2019-04-26T16:28:18.814Z,12.14
2019-04-26T16:31:11.890Z,12.07
2019-04-26T16:33:47.154Z,12.01
2019-04-26T16:36:23.953Z,12.08
2019-04-26T16:38:58.079Z,12.09
2019-04-26T16:41:38.111Z,11.98
2019-04-26T16:44:13.023Z,11.99
2019-04-26T16:46:46.904Z,12.02
2019-04-26T16:49:28.893Z,11.83
2019-04-26T16:52:06.813Z,11.79
2019-04-26T16:54:38.607Z,11.82
2019-04-26T16:57:12.753Z,11.91
2019-04-26T16:59:53.551Z,11.78
2019-04-26T17:02:26.174Z,11.78
2019-04-26T17:05:04.611Z,11.82
2019-04-26T17:07:39.179Z,11.81
2019-04-26T17:10:09.391Z,11.77
2019-04-26T17:12:46.186Z,11.65
2019-04-26T17:15:21.014Z,11.73
2019-04-26T17:17:54.882Z,11.70
2019-04-26T17:20:29.681Z,11.61
2019-04-26T17:23:39.159Z,11.87
2019-04-26T17:26:36.564Z,11.73
2019-04-26T17:29:10.819Z,11.60
2019-04-26T17:31:44.857Z,11.61
2019-04-26T17:34:22.505Z,11.61
2019-04-26T17:36:55.254Z,11.59
2019-04-26T17:39:30.413Z,11.59
2019-04-26T17:42:04.991Z,11.68
2019-04-26T17:44:39.150Z,11.85
2019-04-26T17:47:20.273Z,11.81
2019-04-26T17:49:57.464Z,11.79
2019-04-26T17:52:36.126Z,11.69
2019-04-26T17:55:07.937Z,11.65
2019-04-26T17:57:48.410Z,11.55
2019-04-26T18:00:27.166Z,11.64
2019-04-26T18:03:01.793Z,11.61
2019-04-26T18:05:55.891Z,11.61
2019-04-26T18:08:33.585Z,11.65
2019-04-26T18:10:51.364Z,11.52
2019-04-26T18:13:26.385Z,11.58
2019-04-26T18:16:03.494Z,11.53
2019-04-26T18:19:05.628Z,11.49
2019-04-26T18:21:56.435Z,11.53
2019-04-26T18:24:32.303Z,11.67
2019-04-26T18:27:05.365Z,11.61
2019-04-26T18:29:39.485Z,11.57
2019-04-26T18:32:16.186Z,11.63
2019-04-26T18:34:50.534Z,11.56
2019-04-26T18:37:25.276Z,11.51
2019-04-26T18:40:02.036Z,11.49
2019-04-26T18:42:37.583Z,11.47
2019-04-26T18:45:14.088Z,11.51
2019-04-26T18:47:49.342Z,11.50
2019-04-26T18:50:24.246Z,11.49
2019-04-26T18:53:19.637Z,11.57
2019-04-26T18:55:53.623Z,11.58
2019-04-26T18:58:34.102Z,11.55
2019-04-26T19:01:07.255Z,11.45
2019-04-26T19:03:43.722Z,11.32
2019-04-26T19:06:28.665Z,11.51
2019-04-26T19:08:57.623Z,11.40
2019-04-26T19:11:32.419Z,11.49
2019-04-26T19:14:31.884Z,11.57
2019-04-26T19:17:31.777Z,11.51
2019-04-26T19:20:27.504Z,11.45
2019-04-26T19:23:05.687Z,11.55
2019-04-26T19:25:41.236Z,11.57
2019-04-26T19:28:23.641Z,11.50
2019-04-26T19:30:58.964Z,11.54
2019-04-26T19:33:32.810Z,11.46
2019-04-26T19:36:08.079Z,11.48
2019-04-26T19:38:49.935Z,11.35
2019-04-26T19:41:22.770Z,11.38
2019-04-26T19:43:57.702Z,11.36
2019-04-26T19:47:07.191Z,11.36
2019-04-26T19:50:03.092Z,11.32
2019-04-26T19:52:55.841Z,11.32
2019-04-26T19:55:51.850Z,11.44
2019-04-26T19:58:28.017Z,11.45
2019-04-26T20:01:04.384Z,11.36
2019-04-26T20:03:40.743Z,11.47
2019-04-26T20:06:18.834Z,11.47
2019-04-26T20:08:51.976Z,11.36
2019-04-26T20:11:26.678Z,11.41
2019-04-26T20:14:01.148Z,11.51
2019-04-26T20:16:40.847Z,11.40
2019-04-26T20:19:17.741Z,11.45
2019-04-26T20:21:51.176Z,11.42
2019-04-26T20:24:25.951Z,11.39
2019-04-26T20:27:01.444Z,11.42
2019-04-26T20:29:40.825Z,11.38
2019-04-26T20:32:23.873Z,11.40
2019-04-26T20:35:14.029Z,11.42
2019-04-26T20:37:48.679Z,11.47
2019-04-26T20:40:25.379Z,11.43
2019-04-26T20:43:03.350Z,11.46
2019-04-26T20:45:41.465Z,11.48
2019-04-26T20:48:13.243Z,11.39
2019-04-26T20:50:47.384Z,11.40
2019-04-26T20:53:22.550Z,11.42
2019-04-26T20:55:57.086Z,11.38
2019-04-26T20:58:32.370Z,11.33
2019-04-26T21:01:12.391Z,11.33
2019-04-26T21:03:46.161Z,11.18
2019-04-26T21:06:21.972Z,11.15
2019-04-26T21:08:59.175Z,11.14
2019-04-26T21:11:37.264Z,11.10
2019-04-26T21:14:08.831Z,11.10
2019-04-26T21:16:45.303Z,11.12
2019-04-26T21:19:19.192Z,11.30
2019-04-26T21:21:53.690Z,11.27
2019-04-26T21:24:29.750Z,11.33
2019-04-26T21:27:33.283Z,11.27
2019-04-26T21:30:29.440Z,11.21
2019-04-26T21:33:17.388Z,11.22
2019-04-26T21:36:16.068Z,11.34
2019-04-26T21:39:08.716Z,11.18
2019-04-26T21:41:45.181Z,11.05
2019-04-26T21:44:20.132Z,10.92
2019-04-26T21:46:58.639Z,10.86
2019-04-26T21:49:29.881Z,10.82
2019-04-26T21:52:03.913Z,10.79
2019-04-26T21:54:40.174Z,10.72
2019-04-26T21:57:14.046Z,10.64
2019-04-26T21:59:48.057Z,10.57
2019-04-26T22:02:25.385Z,10.54
2019-04-26T22:04:59.302Z,10.57
2019-04-26T22:07:34.961Z,10.58
2019-04-26T22:10:18.439Z,10.57
2019-04-26T22:12:53.921Z,10.67
2019-04-26T22:15:58.593Z,10.67
2019-04-26T22:19:03.832Z,10.63
2019-04-26T22:22:04.189Z,10.70
2019-04-26T22:24:39.475Z,10.81
2019-04-26T22:27:13.398Z,10.84
2019-04-26T22:29:51.814Z,10.91
2019-04-26T22:32:24.891Z,10.89
2019-04-26T22:34:58.553Z,10.87
2019-04-26T22:37:33.719Z,10.86
2019-04-26T22:40:10.581Z,10.66
2019-04-26T22:42:45.149Z,10.55
2019-04-26T22:45:39.480Z,10.68
2019-04-26T22:48:25.662Z,10.71
2019-04-26T22:51:04.479Z,10.75
2019-04-26T22:53:37.114Z,10.85
2019-04-26T22:56:11.073Z,10.89
2019-04-26T22:58:44.785Z,10.82
2019-04-26T23:01:18.742Z,10.92
2019-04-26T23:03:53.231Z,10.92
2019-04-26T23:06:27.995Z,10.93
2019-04-26T23:09:01.693Z,10.77
2019-04-26T23:11:35.509Z,10.69
2019-04-26T23:14:29.476Z,10.63
2019-04-26T23:17:50.050Z,10.57
2019-04-26T23:20:34.329Z,10.62
2019-04-26T23:23:08.612Z,10.57
2019-04-26T23:25:43.499Z,10.57
2019-04-26T23:28:17.252Z,10.60
2019-04-26T23:30:52.974Z,10.56
2019-04-26T23:33:27.516Z,10.54
2019-04-26T23:36:03.232Z,10.53
2019-04-26T23:38:37.745Z,10.45
2019-04-26T23:41:14.015Z,10.45
2019-04-26T23:43:47.017Z,10.51
2019-04-26T23:46:22.855Z,10.56
2019-04-26T23:48:59.077Z,10.65
2019-04-26T23:51:33.994Z,10.59
2019-04-26T23:54:07.809Z,10.56
2019-04-26T23:56:41.620Z,10.63
2019-04-26T23:59:20.922Z,10.62
